Sea Cloud II — 9HUE6 — position and weather

sailwx.info

Track history (hours):
 
Tides and Currents Weather Stations Pressure Air Temp Water Temp Dewpoint Dewpoint Depression Visibility Wind Speed Wind Dir Waves Ship Positions

Sea Cloud II

Ship's website: http://www.seacloud.com/en/the-ships/sea-cloud-ii.html

Last reported at 2015-Mar-31 09:25 UTC. Time now 2015-Apr-01 22:38 UTC.
Position N 14°04' W 061°10'.

Length 117 m; draft 5.9 m.

Type: Passenger vessel. MMSI: 248953000.

Date/timePositionNaut miles runAvg speedWind from/ knotsBaromVisibWave heightAir tempDewpointWater temp
2015-Mar-31 09:25N 14°04' W 061°10'7 7.7
2015-Mar-31 08:34N 14°10' W 061°12'7 7.2
2015-Mar-31 07:34N 14°17' W 061°14'7 6.6
2015-Mar-31 06:33N 14°23' W 061°16'7 6.7
2015-Mar-31 05:33N 14°30' W 061°17'7 6.7
2015-Mar-31 04:33N 14°36' W 061°19'7 6.9
2015-Mar-31 03:34N 14°43' W 061°22'8 7.5
2015-Mar-31 02:34N 14°50' W 061°25'  
2015-Mar-27 22:12N 18°21' W 064°38'710.4
2015-Mar-27 21:33N 18°23' W 064°45'4 3.4
2015-Mar-27 20:31N 18°26' W 064°46'0 0.0
2015-Mar-27 19:31N 18°26' W 064°46'0 0.0
2015-Mar-27 18:19N 18°26' W 064°46'0 0.0
2015-Mar-27 17:31N 18°26' W 064°46'0 0.0
2015-Mar-27 16:31N 18°26' W 064°46'0 0.0
2015-Mar-27 15:25N 18°26' W 064°46'0 0.0
2015-Mar-27 14:25N 18°26' W 064°46'0 0.0
2015-Mar-27 13:25N 18°26' W 064°46'0 0.0
2015-Mar-27 12:31N 18°26' W 064°46'0 0.4
2015-Mar-27 11:33N 18°26' W 064°46'1 0.7
2015-Mar-27 10:14N 18°26' W 064°45'0 0.0
2015-Mar-27 09:26N 18°26' W 064°45'0 0.0
2015-Mar-27 08:32N 18°26' W 064°45'0 0.0
2015-Mar-27 07:32N 18°26' W 064°45'0 0.0
2015-Mar-27 06:32N 18°26' W 064°45'0 0.0
2015-Mar-27 05:32N 18°26' W 064°45'0 0.0
2015-Mar-27 04:32N 18°26' W 064°45'0 0.0
2015-Mar-27 03:32N 18°26' W 064°45'0 0.0
2015-Mar-27 02:26N 18°26' W 064°45'0 0.0
2015-Mar-27 01:32N 18°26' W 064°45'0 0.0
2015-Mar-27 00:26N 18°26' W 064°45'0 0.0
2015-Mar-26 23:32N 18°26' W 064°45'0 0.1
2015-Mar-26 22:20N 18°26' W 064°45'4 5.1
2015-Mar-26 21:33N 18°23' W 064°43'7 6.7
2015-Mar-26 20:33N 18°22' W 064°36'4 4.0
2015-Mar-26 19:33N 18°24' W 064°32'7 4.9
2015-Mar-26 18:09N 18°28' W 064°27'8 0.3
2015-Mar-25 20:27N 18°33' W 064°21'  
2015-Mar-22 01:29N 18°21' W 064°35'0 0.0
2015-Mar-22 00:23N 18°21' W 064°35'0 0.0
2015-Mar-21 23:23N 18°21' W 064°35'4 5.2
2015-Mar-21 22:33N 18°22' W 064°39'6 6.3
2015-Mar-21 21:33N 18°25' W 064°45'1 1.3
2015-Mar-21 20:23N 18°26' W 064°46'0 0.0
2015-Mar-21 19:29N 18°26' W 064°46'0 0.0
2015-Mar-21 18:29N 18°26' W 064°46'0 0.0
2015-Mar-21 17:29N 18°26' W 064°46'0 0.0
2015-Mar-21 16:29N 18°26' W 064°46'0 0.0
2015-Mar-21 15:23N 18°26' W 064°46'0 0.0
2015-Mar-21 14:23N 18°26' W 064°46'0 0.0
2015-Mar-21 13:23N 18°26' W 064°46'0 0.0
2015-Mar-21 12:29N 18°26' W 064°46'0 0.1
2015-Mar-21 11:33N 18°26' W 064°46'1 0.7
2015-Mar-21 10:33N 18°26' W 064°45'0 0.0
2015-Mar-21 09:33N 18°26' W 064°45'  
Track history (hours):
 
Tides and Currents Weather Stations Pressure Air Temp Water Temp Dewpoint Dewpoint Depression Visibility Wind Speed Wind Dir Waves Ship Positions

Sea Cloud II

Ship's website: http://www.seacloud.com/en/the-ships/sea-cloud-ii.html

Last reported at 2015-Mar-31 09:25 UTC. Time now 2015-Apr-01 22:38 UTC.
Position N 14°04' W 061°10'.

Length 117 m; draft 5.9 m.

Type: Passenger vessel. MMSI: 248953000.

Date/timePositionNaut miles runAvg speedWind from/ knotsBaromVisibWave heightAir tempDewpointWater temp
2015-Mar-31 09:25N 14°04' W 061°10'7 7.7
2015-Mar-31 08:34N 14°10' W 061°12'7 7.2
2015-Mar-31 07:34N 14°17' W 061°14'7 6.6
2015-Mar-31 06:33N 14°23' W 061°16'7 6.7
2015-Mar-31 05:33N 14°30' W 061°17'7 6.7
2015-Mar-31 04:33N 14°36' W 061°19'7 6.9
2015-Mar-31 03:34N 14°43' W 061°22'8 7.5
2015-Mar-31 02:34N 14°50' W 061°25'  
2015-Mar-27 22:12N 18°21' W 064°38'710.4
2015-Mar-27 21:33N 18°23' W 064°45'4 3.4
2015-Mar-27 20:31N 18°26' W 064°46'0 0.0
2015-Mar-27 19:31N 18°26' W 064°46'0 0.0
2015-Mar-27 18:19N 18°26' W 064°46'0 0.0
2015-Mar-27 17:31N 18°26' W 064°46'0 0.0
2015-Mar-27 16:31N 18°26' W 064°46'0 0.0
2015-Mar-27 15:25N 18°26' W 064°46'0 0.0
2015-Mar-27 14:25N 18°26' W 064°46'0 0.0
2015-Mar-27 13:25N 18°26' W 064°46'0 0.0
2015-Mar-27 12:31N 18°26' W 064°46'0 0.4
2015-Mar-27 11:33N 18°26' W 064°46'1 0.7
2015-Mar-27 10:14N 18°26' W 064°45'0 0.0
2015-Mar-27 09:26N 18°26' W 064°45'0 0.0
2015-Mar-27 08:32N 18°26' W 064°45'0 0.0
2015-Mar-27 07:32N 18°26' W 064°45'0 0.0
2015-Mar-27 06:32N 18°26' W 064°45'0 0.0
2015-Mar-27 05:32N 18°26' W 064°45'0 0.0
2015-Mar-27 04:32N 18°26' W 064°45'0 0.0
2015-Mar-27 03:32N 18°26' W 064°45'0 0.0
2015-Mar-27 02:26N 18°26' W 064°45'0 0.0
2015-Mar-27 01:32N 18°26' W 064°45'0 0.0
2015-Mar-27 00:26N 18°26' W 064°45'0 0.0
2015-Mar-26 23:32N 18°26' W 064°45'0 0.1
2015-Mar-26 22:20N 18°26' W 064°45'4 5.1
2015-Mar-26 21:33N 18°23' W 064°43'7 6.7
2015-Mar-26 20:33N 18°22' W 064°36'4 4.0
2015-Mar-26 19:33N 18°24' W 064°32'7 4.9
2015-Mar-26 18:09N 18°28' W 064°27'8 0.3
2015-Mar-25 20:27N 18°33' W 064°21'  
2015-Mar-22 01:29N 18°21' W 064°35'0 0.0
2015-Mar-22 00:23N 18°21' W 064°35'0 0.0
2015-Mar-21 23:23N 18°21' W 064°35'4 5.2
2015-Mar-21 22:33N 18°22' W 064°39'6 6.3
2015-Mar-21 21:33N 18°25' W 064°45'1 1.3
2015-Mar-21 20:23N 18°26' W 064°46'0 0.0
2015-Mar-21 19:29N 18°26' W 064°46'0 0.0
2015-Mar-21 18:29N 18°26' W 064°46'0 0.0
2015-Mar-21 17:29N 18°26' W 064°46'0 0.0
2015-Mar-21 16:29N 18°26' W 064°46'0 0.0
2015-Mar-21 15:23N 18°26' W 064°46'0 0.0
2015-Mar-21 14:23N 18°26' W 064°46'0 0.0
2015-Mar-21 13:23N 18°26' W 064°46'0 0.0
2015-Mar-21 12:29N 18°26' W 064°46'0 0.1
2015-Mar-21 11:33N 18°26' W 064°46'1 0.7
2015-Mar-21 10:33N 18°26' W 064°45'0 0.0
2015-Mar-21 09:33N 18°26' W 064°45'  

Dump ship's entire track history